SHMÚ vydal meteorologické výstrahy na PoľadovicaVietor na horáchSneženieHmla Zobraziť výstrahy

Smogová situácia PM10 - Upozornenie - Ružomberok a okolie » Zobraziť

TAF

Letisková predpoveď TAF

Informácie o správe TAF

27.01.2020 - 11:00 UTC (Včera)

TAF AMD LZKZ 271244Z 2712/2812 VRB02KT 1300 BR OVC004
    TEMPO 2712/2716 3200 BR SCT004 BKN012
    BECMG 2716/2718 0500 FZFG OVC003
    TEMPO 2718/2806 VRB01KT 0100 -SG FZFG OVC001
    BECMG 2808/2810 20008KT 2500 BR BKN004 OVC012
    TEMPO 2808/2812 3000 -FZRA SCT004 BKN010 OVC027=

27.01.2020 - 11:00 UTC (Včera)

TAF LZSL 271100Z 2712/2721 VRB02KT 7000 SCT012
    TEMPO 2712/2715 BKN009
    BECMG 2716/2718 4500 BR BKN008=
TAF LZPP 271100Z 2712/2721 32004KT 9999 OVC007
    TEMPO 2712/2716 BKN011
    BECMG 2718/2720 4500 BR=
TAF LZZI 271100Z 2712/2721 14004KT 6000 OVC007
    BECMG 2716/2718 4500 BR BKN004 OVC007=

skok na menu ↑


skok na začiatok stránky ↑